Time;durP1;ratioP1;P1;durP2;ratioP2;P2;SDS_P1;SDS_P2;PMS_P1;PMS_P2;Temp;Humidity;BMP_temperature;BMP_pressure;BME280_temperature;BME280_humidity;BME280_pressure;Samples;Min_cycle;Max_cycle;Signal;HPM_P1;HPM_P2
2023/11/06 00:01:31;;;;;;;1.55;0.50;;;;;;;;;;5014389;28;20022;-40
2023/11/06 00:03:57;;;;;;;0.73;0.43;;;;;;;;;;5015149;28;20064;-38
2023/11/06 00:06:23;;;;;;;1.25;0.40;;;;;;;;;;5013399;28;20026;-39
2023/11/06 00:08:49;;;;;;;2.22;0.70;;;;;;;;;;5013755;28;20026;-39
2023/11/06 00:11:15;;;;;;;0.52;0.30;;;;;;;;;;5014489;28;20022;-35
2023/11/06 00:13:41;;;;;;;2.15;0.75;;;;;;;;;;5015253;28;20030;-39
2023/11/06 00:16:07;;;;;;;1.20;0.47;;;;;;;;;;5014727;28;20084;-41
2023/11/06 00:18:34;;;;;;;0.63;0.40;;;;;;;;;;5014047;28;20034;-41
2023/11/06 00:21:02;;;;;;;1.25;0.50;;;;;;;;;;5014679;28;20403;-38
2023/11/06 00:23:28;;;;;;;1.10;0.40;;;;;;;;;;5013941;28;20045;-36
2023/11/06 00:25:54;;;;;;;3.03;0.70;;;;;;;;;;5014809;28;20057;-37
2023/11/06 00:28:20;;;;;;;0.93;0.40;;;;;;;;;;5013337;28;20018;-40
2023/11/06 00:30:46;;;;;;;1.40;0.47;;;;;;;;;;5013235;28;20018;-42
2023/11/06 00:33:13;;;;;;;0.85;0.45;;;;;;;;;;5015480;28;20102;-40
2023/11/06 00:35:39;;;;;;;1.63;0.47;;;;;;;;;;5014424;28;20026;-41
2023/11/06 00:38:05;;;;;;;2.33;0.73;;;;;;;;;;5013081;28;20022;-41
2023/11/06 00:40:31;;;;;;;1.52;0.50;;;;;;;;;;5014181;28;20479;-38
2023/11/06 00:42:57;;;;;;;1.65;0.43;;;;;;;;;;5014719;28;20066;-38
2023/11/06 00:45:24;;;;;;;1.27;0.50;;;;;;;;;;5013518;28;20034;-38
2023/11/06 00:47:51;;;;;;;1.17;0.40;;;;;;;;;;5030431;28;20519;-38
2023/11/06 00:50:17;;;;;;;1.65;0.50;;;;;;;;;;5014715;28;20022;-39
2023/11/06 00:52:43;;;;;;;1.58;0.50;;;;;;;;;;5014444;28;20033;-39
2023/11/06 00:55:10;;;;;;;0.95;0.40;;;;;;;;;;5013672;28;20089;-41
2023/11/06 00:57:36;;;;;;;1.63;0.57;;;;;;;;;;5014720;28;20061;-39
2023/11/06 01:00:04;;;;;;;2.97;1.00;;;;;;;;;;5015805;28;20038;-38
2023/11/06 01:02:30;;;;;;;1.40;0.52;;;;;;;;;;5012916;28;20048;-35
2023/11/06 01:04:56;;;;;;;1.27;0.52;;;;;;;;;;5014482;28;20022;-38
2023/11/06 01:07:23;;;;;;;2.22;0.60;;;;;;;;;;5014465;28;20025;-37
2023/11/06 01:09:49;;;;;;;1.58;0.63;;;;;;;;;;5012871;28;20049;-39
2023/11/06 01:12:15;;;;;;;2.25;0.50;;;;;;;;;;5014134;28;20391;-39
2023/11/06 01:14:41;;;;;;;1.50;0.55;;;;;;;;;;5012593;28;20467;-36
2023/11/06 01:17:08;;;;;;;3.00;0.70;;;;;;;;;;5012478;28;20541;-41
2023/11/06 01:19:34;;;;;;;3.40;0.60;;;;;;;;;;5012507;28;20041;-39
2023/11/06 01:22:01;;;;;;;2.13;0.75;;;;;;;;;;5013273;28;20124;-39
2023/11/06 01:24:27;;;;;;;3.78;0.73;;;;;;;;;;5012018;28;20487;-39
2023/11/06 01:26:53;;;;;;;2.60;0.70;;;;;;;;;;5012919;28;20030;-39
2023/11/06 01:29:19;;;;;;;2.38;0.65;;;;;;;;;;5028182;28;20088;-41
2023/11/06 01:31:45;;;;;;;1.52;0.50;;;;;;;;;;5013130;28;20072;-38
2023/11/06 01:34:12;;;;;;;2.33;0.70;;;;;;;;;;5011901;28;20025;-39
2023/11/06 01:36:42;;;;;;;2.15;0.73;;;;;;;;;;5012672;28;20426;-40
2023/11/06 01:39:09;;;;;;;1.38;0.60;;;;;;;;;;5011901;28;20014;-37
2023/11/06 01:41:36;;;;;;;2.05;0.63;;;;;;;;;;5012775;28;20439;-36
2023/11/06 01:44:02;;;;;;;1.38;0.52;;;;;;;;;;5013001;28;20030;-39
2023/11/06 01:46:28;;;;;;;4.25;0.70;;;;;;;;;;5011627;28;20022;-40
2023/11/06 01:48:54;;;;;;;1.83;0.45;;;;;;;;;;5011775;28;20025;-39
2023/11/06 01:51:21;;;;;;;2.17;0.50;;;;;;;;;;5013594;28;20022;-38
2023/11/06 01:56:16;;;;;;;2.97;1.15;;;;;;;;;;5008020;28;20519;-34
2023/11/06 01:58:43;;;;;;;3.15;0.80;;;;;;;;;;5011387;28;20080;-34
2023/11/06 02:01:09;;;;;;;1.60;0.50;;;;;;;;;;5011657;28;20422;-34
2023/11/06 02:03:35;;;;;;;2.55;0.70;;;;;;;;;;5011735;28;20034;-34
2023/11/06 02:06:03;;;;;;;3.10;0.70;;;;;;;;;;5011377;28;20030;-34
2023/11/06 02:08:31;;;;;;;2.03;0.68;;;;;;;;;;5011472;28;20392;-34
2023/11/06 02:10:58;;;;;;;2.75;0.80;;;;;;;;;;5011727;28;20095;-34
2023/11/06 02:13:25;;;;;;;3.53;0.60;;;;;;;;;;5011523;28;20018;-33
2023/11/06 02:15:51;;;;;;;2.22;0.70;;;;;;;;;;5011256;28;20079;-35
2023/11/06 02:18:17;;;;;;;2.13;0.55;;;;;;;;;;5011410;28;20026;-34
2023/11/06 02:20:43;;;;;;;1.42;0.70;;;;;;;;;;5011415;28;20445;-36
2023/11/06 02:23:09;;;;;;;3.22;0.73;;;;;;;;;;5011268;28;20490;-35
2023/11/06 02:25:36;;;;;;;1.85;0.70;;;;;;;;;;5011339;28;20041;-35
2023/11/06 02:28:03;;;;;;;1.80;0.60;;;;;;;;;;5011363;28;20037;-34
2023/11/06 02:30:29;;;;;;;2.00;0.70;;;;;;;;;;5011771;28;20317;-35
2023/11/06 02:32:55;;;;;;;2.42;0.60;;;;;;;;;;5011347;28;20093;-34
2023/11/06 02:35:23;;;;;;;2.67;0.70;;;;;;;;;;5011193;28;20026;-34
2023/11/06 02:37:49;;;;;;;1.90;0.50;;;;;;;;;;5011228;28;20413;-34
2023/11/06 02:40:16;;;;;;;2.17;0.60;;;;;;;;;;5011258;28;20521;-34
2023/11/06 02:42:42;;;;;;;1.17;0.45;;;;;;;;;;5011416;28;20022;-34
2023/11/06 02:45:09;;;;;;;1.05;0.55;;;;;;;;;;5011177;28;20121;-34
2023/11/06 02:47:35;;;;;;;2.08;0.65;;;;;;;;;;5011527;28;20046;-34
2023/11/06 02:50:05;;;;;;;2.53;0.55;;;;;;;;;;5011208;28;20026;-34
2023/11/06 02:52:31;;;;;;;1.60;0.47;;;;;;;;;;5011083;28;20032;-34
2023/11/06 02:54:57;;;;;;;1.73;0.70;;;;;;;;;;5019923;28;20060;-33
2023/11/06 02:57:23;;;;;;;1.65;0.50;;;;;;;;;;5030722;28;20486;-34
2023/11/06 02:59:49;;;;;;;1.33;0.50;;;;;;;;;;5030769;28;20017;-33
2023/11/06 03:02:15;;;;;;;0.80;0.47;;;;;;;;;;5030743;28;20026;-34
2023/11/06 03:04:42;;;;;;;1.40;0.65;;;;;;;;;;5030644;28;20037;-33
2023/11/06 03:07:08;;;;;;;2.03;0.77;;;;;;;;;;5033005;28;20025;-33
2023/11/06 03:09:34;;;;;;;1.33;0.63;;;;;;;;;;5034409;28;20268;-33
2023/11/06 03:12:02;;;;;;;1.75;0.45;;;;;;;;;;5034414;28;20024;-33
2023/11/06 03:14:28;;;;;;;1.67;0.47;;;;;;;;;;5034563;28;20454;-33
2023/11/06 03:16:54;;;;;;;2.72;0.70;;;;;;;;;;5034094;28;20025;-34
2023/11/06 03:19:20;;;;;;;2.92;0.47;;;;;;;;;;5034131;28;20026;-34
2023/11/06 03:21:46;;;;;;;0.93;0.40;;;;;;;;;;5034030;28;20032;-34
2023/11/06 03:24:13;;;;;;;1.20;0.43;;;;;;;;;;5033971;28;20028;-35
2023/11/06 03:26:39;;;;;;;2.63;0.70;;;;;;;;;;5033848;28;20064;-36
2023/11/06 03:29:05;;;;;;;1.88;0.68;;;;;;;;;;5034160;28;20031;-34
2023/11/06 03:31:32;;;;;;;1.15;0.40;;;;;;;;;;5033936;28;20025;-35
2023/11/06 03:33:58;;;;;;;1.90;0.52;;;;;;;;;;5034207;28;20027;-35
2023/11/06 03:36:24;;;;;;;1.23;0.47;;;;;;;;;;5033690;28;20021;-34
2023/11/06 03:38:50;;;;;;;2.97;0.55;;;;;;;;;;5033809;28;20021;-34
2023/11/06 03:41:16;;;;;;;1.08;0.40;;;;;;;;;;5033713;28;20083;-35
2023/11/06 03:43:42;;;;;;;1.50;0.47;;;;;;;;;;5033776;28;20076;-34
2023/11/06 03:46:08;;;;;;;1.60;0.50;;;;;;;;;;5033578;28;20103;-35
2023/11/06 03:48:34;;;;;;;1.42;0.40;;;;;;;;;;5033549;28;20018;-34
2023/11/06 03:51:00;;;;;;;1.35;0.50;;;;;;;;;;5033632;28;20017;-33
2023/11/06 03:53:26;;;;;;;1.25;0.50;;;;;;;;;;5033581;28;20048;-33
2023/11/06 03:55:53;;;;;;;2.20;0.60;;;;;;;;;;5033275;28;20087;-34
2023/11/06 03:58:19;;;;;;;2.58;0.43;;;;;;;;;;5033462;28;20029;-33
2023/11/06 04:00:46;;;;;;;2.75;0.60;;;;;;;;;;5033374;28;20029;-34
2023/11/06 04:03:12;;;;;;;1.13;0.40;;;;;;;;;;5033212;28;20108;-34
2023/11/06 04:05:38;;;;;;;1.08;0.40;;;;;;;;;;5033235;28;20025;-34
2023/11/06 04:08:04;;;;;;;1.75;0.50;;;;;;;;;;5033213;28;20034;-36
2023/11/06 04:10:30;;;;;;;2.28;0.60;;;;;;;;;;5033219;28;20025;-35
2023/11/06 04:12:57;;;;;;;2.72;0.50;;;;;;;;;;5033260;28;20025;-34
2023/11/06 04:15:23;;;;;;;1.50;0.40;;;;;;;;;;5033080;28;20028;-34
2023/11/06 04:17:49;;;;;;;0.95;0.47;;;;;;;;;;5032007;28;20025;-34
2023/11/06 04:20:15;;;;;;;2.08;0.50;;;;;;;;;;5033123;28;20034;-34
2023/11/06 04:22:41;;;;;;;1.42;0.60;;;;;;;;;;5032959;28;20577;-34
2023/11/06 04:25:08;;;;;;;2.25;0.50;;;;;;;;;;5032764;28;20184;-33
2023/11/06 04:27:34;;;;;;;0.95;0.40;;;;;;;;;;5032871;28;20029;-34
2023/11/06 04:30:00;;;;;;;1.80;0.65;;;;;;;;;;5032913;28;20209;-34
2023/11/06 04:32:26;;;;;;;1.50;0.43;;;;;;;;;;5032720;28;20025;-35
2023/11/06 04:34:52;;;;;;;2.95;0.65;;;;;;;;;;5032684;28;20041;-36
2023/11/06 04:37:18;;;;;;;2.72;0.60;;;;;;;;;;5032586;28;20026;-36
2023/11/06 04:39:44;;;;;;;0.98;0.30;;;;;;;;;;5032665;28;20552;-36
2023/11/06 04:42:10;;;;;;;1.38;0.35;;;;;;;;;;5032548;28;20479;-37
2023/11/06 04:44:37;;;;;;;1.20;0.60;;;;;;;;;;5032469;28;20112;-38
2023/11/06 04:47:04;;;;;;;1.63;0.43;;;;;;;;;;5032046;28;20029;-34
2023/11/06 04:49:30;;;;;;;1.80;0.60;;;;;;;;;;5032573;28;20072;-34
2023/11/06 04:51:57;;;;;;;3.38;0.60;;;;;;;;;;5032662;28;20029;-34
2023/11/06 04:54:23;;;;;;;0.80;0.40;;;;;;;;;;5032267;28;20029;-36
2023/11/06 04:56:49;;;;;;;2.00;0.50;;;;;;;;;;5032206;28;20450;-35
2023/11/06 04:59:15;;;;;;;0.88;0.40;;;;;;;;;;5032274;28;20502;-34
2023/11/06 05:01:42;;;;;;;1.17;0.50;;;;;;;;;;5032213;28;20057;-34
2023/11/06 05:04:08;;;;;;;0.85;0.50;;;;;;;;;;5032347;28;20041;-34
2023/11/06 05:06:34;;;;;;;3.13;0.50;;;;;;;;;;5031962;28;20029;-34
2023/11/06 05:09:00;;;;;;;1.38;0.45;;;;;;;;;;5032168;28;20022;-34
2023/11/06 05:11:27;;;;;;;1.85;0.40;;;;;;;;;;5032096;28;20482;-33
2023/11/06 05:13:54;;;;;;;1.17;0.50;;;;;;;;;;5031915;28;20041;-34
2023/11/06 05:16:20;;;;;;;1.67;0.40;;;;;;;;;;5032132;28;20025;-34
2023/11/06 05:18:46;;;;;;;0.95;0.50;;;;;;;;;;5031942;28;20025;-33
2023/11/06 05:21:12;;;;;;;1.65;0.52;;;;;;;;;;5031875;28;20036;-33
2023/11/06 05:23:38;;;;;;;1.15;0.40;;;;;;;;;;5031895;28;20033;-35
2023/11/06 05:26:05;;;;;;;1.20;0.30;;;;;;;;;;5032143;28;20025;-34
2023/11/06 05:28:31;;;;;;;0.95;0.40;;;;;;;;;;5031494;28;20033;-34
2023/11/06 05:30:57;;;;;;;2.55;0.63;;;;;;;;;;5032045;28;20386;-34
2023/11/06 05:33:23;;;;;;;0.85;0.40;;;;;;;;;;5031781;28;20492;-33
2023/11/06 05:35:49;;;;;;;1.58;0.47;;;;;;;;;;5031473;28;20108;-34
2023/11/06 05:38:15;;;;;;;2.03;0.60;;;;;;;;;;5031537;28;20037;-34
2023/11/06 05:40:41;;;;;;;1.13;0.45;;;;;;;;;;5031595;28;20033;-34
2023/11/06 05:43:09;;;;;;;1.60;0.50;;;;;;;;;;5031476;28;20021;-34
2023/11/06 05:45:35;;;;;;;1.27;0.40;;;;;;;;;;5031399;28;20034;-36
2023/11/06 05:48:01;;;;;;;4.32;0.68;;;;;;;;;;5031323;28;20029;-34
2023/11/06 05:50:27;;;;;;;4.20;0.60;;;;;;;;;;5031475;28;20029;-35
2023/11/06 05:52:53;;;;;;;3.28;0.77;;;;;;;;;;5031361;28;20021;-35
2023/11/06 05:55:19;;;;;;;3.83;0.60;;;;;;;;;;5031141;28;20029;-35
2023/11/06 05:57:46;;;;;;;4.45;0.95;;;;;;;;;;5031231;28;20079;-35
2023/11/06 06:00:15;;;;;;;3.08;0.55;;;;;;;;;;5031482;28;20634;-35
2023/11/06 06:02:41;;;;;;;3.13;0.70;;;;;;;;;;5031291;28;20458;-35
2023/11/06 06:05:07;;;;;;;2.97;0.80;;;;;;;;;;5031015;28;20025;-36
2023/11/06 06:07:33;;;;;;;3.63;0.68;;;;;;;;;;5046745;28;20056;-36
2023/11/06 06:09:59;;;;;;;3.78;0.70;;;;;;;;;;5032782;28;20017;-36
2023/11/06 06:12:27;;;;;;;2.28;0.60;;;;;;;;;;5033903;28;20029;-35
2023/11/06 06:14:55;;;;;;;3.17;0.73;;;;;;;;;;5033710;28;20029;-42
2023/11/06 06:17:21;;;;;;;0.98;0.47;;;;;;;;;;5031113;28;20052;-37
2023/11/06 06:19:47;;;;;;;2.83;0.45;;;;;;;;;;5031134;28;20398;-36
2023/11/06 06:22:13;;;;;;;3.58;0.70;;;;;;;;;;5031058;28;20391;-35
2023/11/06 06:24:40;;;;;;;3.80;0.60;;;;;;;;;;5030827;28;20390;-35
2023/11/06 06:27:06;;;;;;;2.03;0.52;;;;;;;;;;5030948;28;20020;-34
2023/11/06 06:29:32;;;;;;;2.00;0.50;;;;;;;;;;5031077;28;20025;-36
2023/11/06 06:31:58;;;;;;;1.77;0.68;;;;;;;;;;5031136;28;20375;-35
2023/11/06 06:34:24;;;;;;;1.15;0.50;;;;;;;;;;5030968;28;20083;-35
2023/11/06 06:36:50;;;;;;;1.40;0.50;;;;;;;;;;5030844;28;20241;-35
2023/11/06 06:39:16;;;;;;;2.00;0.43;;;;;;;;;;5030877;28;20036;-35
2023/11/06 06:41:43;;;;;;;1.35;0.50;;;;;;;;;;5032776;28;20044;-36
2023/11/06 06:44:09;;;;;;;1.40;0.63;;;;;;;;;;5034733;28;20018;-35
2023/11/06 06:46:35;;;;;;;1.83;0.60;;;;;;;;;;5034545;28;20026;-35
2023/11/06 06:49:01;;;;;;;1.55;0.75;;;;;;;;;;5034765;28;20037;-35
2023/11/06 06:51:27;;;;;;;2.42;0.70;;;;;;;;;;5034640;28;20044;-35
2023/11/06 06:53:53;;;;;;;2.15;0.80;;;;;;;;;;5034521;28;20025;-34
2023/11/06 06:56:19;;;;;;;2.45;0.60;;;;;;;;;;5034357;28;20061;-35
2023/11/06 06:58:45;;;;;;;1.00;0.60;;;;;;;;;;5034492;28;20040;-35
2023/11/06 07:01:13;;;;;;;4.05;0.80;;;;;;;;;;5034617;28;20399;-35
2023/11/06 07:03:39;;;;;;;2.35;0.70;;;;;;;;;;5034616;28;20029;-35
2023/11/06 07:06:10;;;;;;;3.00;0.75;;;;;;;;;;5033051;28;20028;-35
2023/11/06 07:08:36;;;;;;;2.88;0.60;;;;;;;;;;5034384;28;20049;-38
2023/11/06 07:11:03;;;;;;;3.10;0.60;;;;;;;;;;5034474;28;20029;-36
2023/11/06 07:13:29;;;;;;;3.60;0.65;;;;;;;;;;5034348;28;20021;-36
2023/11/06 07:15:55;;;;;;;2.22;0.63;;;;;;;;;;5034131;28;20154;-36
2023/11/06 07:18:21;;;;;;;1.27;0.50;;;;;;;;;;5034127;28;20025;-36
2023/11/06 07:20:47;;;;;;;1.60;0.70;;;;;;;;;;5034149;28;20108;-35
2023/11/06 07:23:13;;;;;;;1.15;0.50;;;;;;;;;;5049272;28;20116;-35
2023/11/06 07:25:39;;;;;;;1.35;0.52;;;;;;;;;;5034036;28;20029;-34
2023/11/06 07:28:06;;;;;;;1.27;0.52;;;;;;;;;;5034128;28;20033;-36
2023/11/06 07:30:32;;;;;;;0.85;0.50;;;;;;;;;;5034124;28;20021;-34
2023/11/06 07:32:58;;;;;;;2.42;0.70;;;;;;;;;;5034399;28;20022;-34
2023/11/06 07:35:25;;;;;;;1.52;0.55;;;;;;;;;;5033735;28;20032;-35
2023/11/06 07:37:51;;;;;;;1.30;0.30;;;;;;;;;;5033725;28;20163;-36
2023/11/06 07:40:17;;;;;;;2.30;0.60;;;;;;;;;;5033844;28;20025;-36
2023/11/06 07:42:43;;;;;;;0.95;0.40;;;;;;;;;;5049052;28;20120;-35
2023/11/06 07:45:10;;;;;;;1.27;0.57;;;;;;;;;;5033522;28;20052;-36
2023/11/06 07:47:36;;;;;;;1.08;0.55;;;;;;;;;;5048768;28;20044;-35
2023/11/06 07:50:03;;;;;;;2.83;0.70;;;;;;;;;;5053631;28;20537;-34
2023/11/06 07:52:30;;;;;;;1.10;0.40;;;;;;;;;;5053350;28;20029;-34
2023/11/06 07:54:56;;;;;;;2.60;0.80;;;;;;;;;;5053450;28;20053;-35
2023/11/06 07:57:22;;;;;;;7.63;1.10;;;;;;;;;;5062675;23;20038;-40
2023/11/06 07:59:49;;;;;;;3.50;1.00;;;;;;;;;;5034727;28;20049;-41
2023/11/06 08:02:15;;;;;;;3.97;0.80;;;;;;;;;;5034219;28;20092;-41
2023/11/06 08:04:41;;;;;;;3.92;1.05;;;;;;;;;;5033409;28;20029;-40
2023/11/06 08:07:07;;;;;;;2.47;0.93;;;;;;;;;;5033480;28;20378;-38
2023/11/06 08:09:33;;;;;;;5.22;1.10;;;;;;;;;;5034592;28;20084;-41
2023/11/06 08:12:00;;;;;;;3.90;0.93;;;;;;;;;;5033833;28;20026;-36
2023/11/06 08:14:26;;;;;;;3.05;0.80;;;;;;;;;;5033307;28;20025;-39
2023/11/06 08:16:52;;;;;;;3.88;1.08;;;;;;;;;;5034087;28;20025;-40
2023/11/06 08:19:18;;;;;;;2.85;0.90;;;;;;;;;;5033149;28;20108;-40
2023/11/06 08:21:44;;;;;;;3.17;0.90;;;;;;;;;;5034439;28;20025;-37
2023/11/06 08:24:10;;;;;;;2.28;0.70;;;;;;;;;;5033339;28;20036;-40
2023/11/06 08:26:37;;;;;;;3.50;1.02;;;;;;;;;;5033200;28;20017;-39
2023/11/06 08:29:04;;;;;;;1.42;0.70;;;;;;;;;;5033972;28;20033;-41
2023/11/06 08:31:30;;;;;;;2.53;1.00;;;;;;;;;;5033726;28;20077;-39
2023/11/06 08:33:56;;;;;;;2.45;0.77;;;;;;;;;;5033475;28;20018;-39
2023/11/06 08:36:22;;;;;;;1.60;0.68;;;;;;;;;;5034232;28;20096;-40
2023/11/06 08:38:48;;;;;;;2.10;0.73;;;;;;;;;;5033210;28;20026;-41
2023/11/06 08:41:14;;;;;;;2.67;0.90;;;;;;;;;;5033468;28;20301;-40
2023/11/06 08:43:40;;;;;;;3.00;0.90;;;;;;;;;;5034608;28;20048;-40
2023/11/06 08:46:07;;;;;;;2.15;0.65;;;;;;;;;;5034207;28;20056;-39
2023/11/06 08:48:34;;;;;;;2.20;0.70;;;;;;;;;;5034078;28;20094;-40
2023/11/06 08:51:00;;;;;;;1.67;0.73;;;;;;;;;;5033782;28;20500;-41
2023/11/06 08:53:26;;;;;;;2.88;0.88;;;;;;;;;;5032579;28;20014;-41
2023/11/06 08:55:52;;;;;;;2.60;0.63;;;;;;;;;;5032259;28;20475;-41
2023/11/06 08:58:18;;;;;;;4.85;1.10;;;;;;;;;;5032388;28;20087;-41
2023/11/06 09:00:47;;;;;;;1.73;0.73;;;;;;;;;;5033132;28;20079;-41
2023/11/06 09:03:14;;;;;;;3.97;0.85;;;;;;;;;;5034125;28;20037;-41
2023/11/06 09:05:40;;;;;;;2.05;0.60;;;;;;;;;;5032148;28;20061;-38
2023/11/06 09:08:06;;;;;;;2.95;0.70;;;;;;;;;;5032222;28;20034;-39
2023/11/06 09:10:32;;;;;;;1.70;0.73;;;;;;;;;;5033117;28;20454;-40
2023/11/06 09:13:00;;;;;;;1.88;0.60;;;;;;;;;;5032307;28;20044;-40
2023/11/06 09:15:26;;;;;;;2.25;0.60;;;;;;;;;;5031871;28;20033;-40
2023/11/06 09:17:53;;;;;;;1.10;0.70;;;;;;;;;;5030962;28;20053;-39
2023/11/06 09:20:19;;;;;;;1.70;0.60;;;;;;;;;;5032749;28;20100;-41
2023/11/06 09:22:46;;;;;;;2.50;0.70;;;;;;;;;;5032932;28;20084;-37
2023/11/06 09:25:13;;;;;;;2.83;0.70;;;;;;;;;;5032854;28;20025;-38
2023/11/06 09:27:39;;;;;;;1.10;0.57;;;;;;;;;;5032808;28;20475;-43
2023/11/06 09:30:08;;;;;;;1.63;0.75;;;;;;;;;;5032329;28;20075;-40
2023/11/06 09:32:34;;;;;;;2.10;0.77;;;;;;;;;;5032141;28;20483;-39
2023/11/06 09:35:03;;;;;;;1.70;0.60;;;;;;;;;;5033494;28;20073;-39
2023/11/06 09:37:29;;;;;;;2.08;0.63;;;;;;;;;;5031677;28;20030;-40
2023/11/06 09:39:55;;;;;;;2.65;0.73;;;;;;;;;;5032498;28;20525;-39
2023/11/06 09:42:21;;;;;;;1.92;0.77;;;;;;;;;;5031478;28;20116;-40
2023/11/06 09:44:48;;;;;;;1.33;0.57;;;;;;;;;;5031507;28;20517;-38
2023/11/06 09:47:15;;;;;;;1.20;0.60;;;;;;;;;;5032265;28;20538;-41
2023/11/06 09:49:50;;;;;;;1.55;0.70;;;;;;;;;;5032667;28;20100;-41
2023/11/06 09:52:18;;;;;;;1.92;0.50;;;;;;;;;;5032006;28;20025;-40
2023/11/06 09:54:47;;;;;;;1.23;0.50;;;;;;;;;;5032988;28;20029;-40
2023/11/06 09:57:14;;;;;;;2.72;0.80;;;;;;;;;;5032960;28;20065;-38
2023/11/06 09:59:43;;;;;;;2.28;0.85;;;;;;;;;;5031527;28;20025;-38
2023/11/06 10:02:10;;;;;;;0.93;0.45;;;;;;;;;;5032218;28;20057;-40
2023/11/06 10:04:36;;;;;;;1.25;0.70;;;;;;;;;;5031534;28;20021;-39
2023/11/06 10:07:04;;;;;;;1.38;0.57;;;;;;;;;;5030929;28;20021;-39
2023/11/06 10:09:31;;;;;;;1.85;0.60;;;;;;;;;;5031209;28;20518;-38
2023/11/06 10:12:13;;;;;;;1.85;0.55;;;;;;;;;;5032484;28;20026;-39
2023/11/06 10:14:39;;;;;;;1.23;0.50;;;;;;;;;;5029977;28;20104;-40
2023/11/06 10:17:05;;;;;;;2.17;0.77;;;;;;;;;;5033807;28;20029;-39
2023/11/06 10:19:32;;;;;;;2.55;0.70;;;;;;;;;;5037444;28;20024;-40
2023/11/06 10:22:11;;;;;;;2.03;0.57;;;;;;;;;;5035608;28;20104;-37
2023/11/06 10:24:48;;;;;;;1.42;0.70;;;;;;;;;;5036788;28;20017;-43
2023/11/06 10:27:29;;;;;;;1.35;0.60;;;;;;;;;;5036658;28;20021;-43
2023/11/06 10:29:59;;;;;;;2.55;0.70;;;;;;;;;;5035163;28;20048;-41
2023/11/06 10:32:27;;;;;;;1.10;0.70;;;;;;;;;;5035120;28;20025;-41
2023/11/06 10:34:53;;;;;;;1.75;0.50;;;;;;;;;;5035149;28;20470;-41
2023/11/06 10:37:19;;;;;;;1.92;0.60;;;;;;;;;;5035958;28;20083;-38
2023/11/06 10:39:52;;;;;;;1.13;0.38;;;;;;;;;;5035133;28;20022;-40
2023/11/06 10:42:21;;;;;;;2.35;0.77;;;;;;;;;;5035694;28;20049;-39
2023/11/06 10:44:50;;;;;;;2.80;0.80;;;;;;;;;;5035543;28;20087;-39
2023/11/06 10:47:17;;;;;;;1.88;0.40;;;;;;;;;;5034770;28;20022;-41
2023/11/06 10:49:44;;;;;;;3.80;0.70;;;;;;;;;;5035431;28;20029;-39
2023/11/06 10:52:10;;;;;;;2.10;0.80;;;;;;;;;;5036393;28;20600;-38
2023/11/06 10:54:38;;;;;;;2.72;0.70;;;;;;;;;;5035050;28;20100;-39
2023/11/06 10:57:05;;;;;;;2.30;0.80;;;;;;;;;;5035676;28;20029;-41
2023/11/06 10:59:31;;;;;;;2.70;0.50;;;;;;;;;;5035833;28;20068;-37
2023/11/06 11:01:58;;;;;;;1.77;0.60;;;;;;;;;;5036743;28;20079;-39
2023/11/06 11:04:24;;;;;;;1.60;0.88;;;;;;;;;;5035366;28;20112;-41
2023/11/06 11:06:51;;;;;;;1.95;0.60;;;;;;;;;;5034221;28;20099;-40
2023/11/06 11:09:17;;;;;;;1.38;0.50;;;;;;;;;;5034875;28;20025;-40
2023/11/06 11:11:44;;;;;;;5.03;0.57;;;;;;;;;;5034444;28;20014;-41
2023/11/06 11:14:13;;;;;;;1.00;0.55;;;;;;;;;;5035386;28;20029;-39
2023/11/06 11:16:41;;;;;;;1.23;0.50;;;;;;;;;;5035657;28;20104;-39
2023/11/06 11:19:33;;;;;;;3.40;0.73;;;;;;;;;;5034753;28;20022;-39
2023/11/06 11:22:00;;;;;;;1.45;0.70;;;;;;;;;;5034802;28;20029;-38
2023/11/06 11:24:38;;;;;;;1.05;0.40;;;;;;;;;;5033026;28;20030;-41
2023/11/06 11:27:23;;;;;;;1.33;0.30;;;;;;;;;;5034004;28;20026;-38
2023/11/06 11:29:56;;;;;;;1.63;0.47;;;;;;;;;;5035705;28;20025;-41
2023/11/06 11:32:25;;;;;;;0.75;0.40;;;;;;;;;;5035169;28;20029;-41
2023/11/06 11:34:55;;;;;;;1.42;0.70;;;;;;;;;;5035029;28;20061;-41
2023/11/06 11:37:30;;;;;;;1.10;0.50;;;;;;;;;;5035365;28;20418;-41
2023/11/06 11:39:58;;;;;;;3.75;0.43;;;;;;;;;;5035972;28;20057;-40
2023/11/06 11:42:24;;;;;;;1.40;0.55;;;;;;;;;;5036036;28;20028;-42
2023/11/06 11:45:10;;;;;;;1.88;0.70;;;;;;;;;;5034910;28;20021;-41
2023/11/06 11:47:48;;;;;;;1.27;0.70;;;;;;;;;;5035263;28;20025;-41
2023/11/06 11:50:44;;;;;;;1.63;0.50;;;;;;;;;;5036608;28;20022;-40
2023/11/06 11:53:29;;;;;;;2.00;0.70;;;;;;;;;;5022566;28;20597;-40
2023/11/06 11:55:55;;;;;;;2.72;0.65;;;;;;;;;;5033376;28;20516;-39
2023/11/06 11:58:21;;;;;;;2.50;0.63;;;;;;;;;;5033474;28;20112;-39
2023/11/06 12:00:49;;;;;;;2.75;0.40;;;;;;;;;;5033475;28;20035;-40
2023/11/06 12:03:18;;;;;;;1.45;0.50;;;;;;;;;;5033748;28;20037;-40
2023/11/06 12:05:46;;;;;;;0.88;0.50;;;;;;;;;;5033339;28;20032;-40
2023/11/06 12:08:20;;;;;;;1.98;0.68;;;;;;;;;;5033641;28;20356;-40
2023/11/06 12:10:47;;;;;;;1.30;0.40;;;;;;;;;;5033812;28;20026;-36
2023/11/06 12:13:14;;;;;;;1.23;0.50;;;;;;;;;;5033493;28;20047;-41
2023/11/06 12:15:40;;;;;;;0.95;0.40;;;;;;;;;;5033414;28;20026;-39
2023/11/06 12:18:10;;;;;;;1.63;0.55;;;;;;;;;;5033498;28;20025;-40
2023/11/06 12:20:37;;;;;;;2.42;0.40;;;;;;;;;;5033197;28;20033;-38
2023/11/06 12:23:03;;;;;;;1.92;0.40;;;;;;;;;;5033137;28;20052;-39
2023/11/06 12:25:31;;;;;;;1.45;0.55;;;;;;;;;;5032854;28;20029;-38
2023/11/06 12:28:07;;;;;;;1.13;0.50;;;;;;;;;;5032886;28;20033;-39
2023/11/06 12:30:36;;;;;;;0.95;0.40;;;;;;;;;;5033050;28;20025;-41
2023/11/06 12:33:10;;;;;;;1.63;0.50;;;;;;;;;;5032938;28;20026;-41
2023/11/06 12:35:39;;;;;;;1.70;0.45;;;;;;;;;;5033200;28;20025;-41
2023/11/06 12:38:05;;;;;;;0.52;0.30;;;;;;;;;;5032441;28;20528;-41
2023/11/06 12:40:32;;;;;;;1.52;0.45;;;;;;;;;;5032755;28;20100;-41
2023/11/06 12:43:02;;;;;;;0.80;0.40;;;;;;;;;;5032872;28;20517;-37
2023/11/06 12:45:34;;;;;;;1.00;0.40;;;;;;;;;;5033150;28;20025;-40
2023/11/06 12:48:02;;;;;;;0.98;0.40;;;;;;;;;;5032566;28;20079;-37
2023/11/06 12:50:32;;;;;;;1.10;0.40;;;;;;;;;;5032779;28;20445;-40
2023/11/06 12:52:58;;;;;;;0.40;0.30;;;;;;;;;;5032658;28;20020;-41
2023/11/06 12:55:24;;;;;;;1.20;0.60;;;;;;;;;;5032543;28;20048;-38
2023/11/06 12:57:50;;;;;;;1.15;0.52;;;;;;;;;;5032217;28;20116;-40
2023/11/06 13:00:27;;;;;;;2.35;0.50;;;;;;;;;;5032297;28;20491;-41
2023/11/06 13:02:54;;;;;;;0.80;0.47;;;;;;;;;;5032735;28;20176;-41
2023/11/06 13:05:20;;;;;;;0.40;0.30;;;;;;;;;;5032240;28;20109;-41
2023/11/06 13:07:51;;;;;;;0.30;0.20;;;;;;;;;;5032308;28;20028;-38
2023/11/06 13:10:18;;;;;;;0.70;0.30;;;;;;;;;;5032226;28;20045;-41
2023/11/06 13:12:45;;;;;;;1.30;0.50;;;;;;;;;;5032003;28;20038;-40
2023/11/06 13:15:11;;;;;;;2.05;0.40;;;;;;;;;;5032116;28;20375;-38
2023/11/06 13:17:38;;;;;;;0.95;0.35;;;;;;;;;;5032564;28;20030;-41
2023/11/06 13:20:24;;;;;;;1.00;0.40;;;;;;;;;;5032120;28;20026;-39
2023/11/06 13:22:50;;;;;;;0.85;0.40;;;;;;;;;;5033216;28;20056;-41
2023/11/06 13:25:16;;;;;;;0.82;0.30;;;;;;;;;;5031647;28;20021;-39
2023/11/06 13:27:43;;;;;;;1.45;0.43;;;;;;;;;;5032974;28;20050;-40
2023/11/06 13:30:09;;;;;;;0.30;0.25;;;;;;;;;;5032246;28;20021;-37
2023/11/06 13:32:35;;;;;;;1.85;0.40;;;;;;;;;;5031845;28;20453;-39
2023/11/06 13:35:02;;;;;;;0.88;0.40;;;;;;;;;;5032513;28;20493;-38
2023/11/06 13:37:28;;;;;;;0.98;0.30;;;;;;;;;;5032044;28;20017;-38
2023/11/06 13:39:56;;;;;;;0.50;0.35;;;;;;;;;;5032572;28;20053;-38
2023/11/06 13:42:22;;;;;;;1.15;0.30;;;;;;;;;;5032267;28;20033;-40
2023/11/06 13:44:48;;;;;;;0.63;0.20;;;;;;;;;;5031896;28;20382;-41
2023/11/06 13:47:14;;;;;;;1.85;0.30;;;;;;;;;;5031454;28;20040;-40
2023/11/06 13:49:40;;;;;;;1.17;0.32;;;;;;;;;;5032844;28;20379;-37
2023/11/06 13:52:23;;;;;;;2.15;0.45;;;;;;;;;;5031793;28;20026;-41
2023/11/06 13:54:50;;;;;;;4.22;0.28;;;;;;;;;;5032179;28;20017;-40
2023/11/06 13:57:21;;;;;;;0.93;0.40;;;;;;;;;;5032340;28;20033;-40
2023/11/06 13:59:47;;;;;;;0.50;0.32;;;;;;;;;;5031770;28;20021;-40
2023/11/06 14:02:19;;;;;;;2.13;0.50;;;;;;;;;;5031443;28;20025;-39
2023/11/06 14:04:52;;;;;;;0.63;0.50;;;;;;;;;;5034359;28;20390;-40
2023/11/06 14:07:18;;;;;;;1.17;0.55;;;;;;;;;;5031334;28;20029;-37
2023/11/06 14:09:49;;;;;;;1.27;0.40;;;;;;;;;;5031425;28;20025;-41
2023/11/06 14:12:15;;;;;;;1.00;0.30;;;;;;;;;;5031999;28;20022;-41
2023/11/06 14:14:41;;;;;;;1.40;0.30;;;;;;;;;;5031873;28;20021;-38
2023/11/06 14:17:07;;;;;;;0.63;0.40;;;;;;;;;;5031600;28;20111;-37
2023/11/06 14:19:36;;;;;;;1.45;0.50;;;;;;;;;;5031492;28;20052;-42
2023/11/06 14:22:07;;;;;;;2.88;0.52;;;;;;;;;;5031898;28;20451;-37
2023/11/06 14:24:33;;;;;;;0.63;0.50;;;;;;;;;;5031636;28;20471;-40
2023/11/06 14:27:00;;;;;;;0.40;0.30;;;;;;;;;;5031132;28;20037;-39
2023/11/06 14:29:26;;;;;;;1.40;0.35;;;;;;;;;;5031576;28;20021;-41
2023/11/06 14:31:52;;;;;;;0.35;0.20;;;;;;;;;;5031318;28;20026;-41
2023/11/06 14:34:19;;;;;;;1.08;0.60;;;;;;;;;;5031247;28;20026;-38
2023/11/06 14:36:45;;;;;;;0.80;0.32;;;;;;;;;;5031037;28;20033;-39
2023/11/06 14:39:15;;;;;;;0.40;0.28;;;;;;;;;;5031005;28;20061;-41
2023/11/06 14:41:41;;;;;;;0.10;0.10;;;;;;;;;;5031080;28;20108;-41
2023/11/06 14:44:10;;;;;;;0.70;0.40;;;;;;;;;;5031290;28;20028;-39
2023/11/06 14:46:36;;;;;;;0.85;0.30;;;;;;;;;;5030733;28;20022;-41